Terminal Aerodrome Forecast
Issued by NWS Los Angeles, CA

Home | Current Version | Previous Version | Text Only | Print | Product List | Glossary On
Versions: 1 2 3 4 5 6 7 8 9 10 11 12 13 14 15 16 17 18 19 20 21 22 23 24 25 26
000
FTUS46 KLOX 010500 RRA
TAFSMX
TAF
KSMX 010542Z 0106/0206 31006KT 5SM BR OVC005
     FM010700 VRB03KT 2SM BR OVC002
     FM011200 VRB03KT 1/4SM FG VV002
     FM011500 VRB03KT 1 1/2SM BR OVC003
     FM011700 VRB03KT 4SM BR OVC004
     FM011800 31005KT P6SM SKC
     FM012100 31011KT P6SM SKC
     FM020300 21006KT 5SM BR BKN006=

USA.gov is the U.S. government's official web portal to all federal, state and local government web resources and services.